sensor_id;sensor_type;location;lat;lon;timestamp;temperature;humidity
4411;DHT22;2218;51.408;7.208;2023-08-06T00:01:53;21.00;59.40
4411;DHT22;2218;51.408;7.208;2023-08-06T00:04:19;21.00;59.50
4411;DHT22;2218;51.408;7.208;2023-08-06T00:06:46;21.00;59.40
4411;DHT22;2218;51.408;7.208;2023-08-06T00:09:15;21.00;59.40
4411;DHT22;2218;51.408;7.208;2023-08-06T00:11:41;21.00;59.50
4411;DHT22;2218;51.408;7.208;2023-08-06T00:14:09;21.00;59.50
4411;DHT22;2218;51.408;7.208;2023-08-06T00:16:36;21.00;59.50
4411;DHT22;2218;51.408;7.208;2023-08-06T00:19:03;21.00;59.40
4411;DHT22;2218;51.408;7.208;2023-08-06T00:21:30;21.00;59.50
4411;DHT22;2218;51.408;7.208;2023-08-06T00:23:57;21.00;59.50
4411;DHT22;2218;51.408;7.208;2023-08-06T00:26:25;21.00;59.40
4411;DHT22;2218;51.408;7.208;2023-08-06T00:28:52;21.00;59.50
4411;DHT22;2218;51.408;7.208;2023-08-06T00:31:19;21.00;59.50
4411;DHT22;2218;51.408;7.208;2023-08-06T00:33:46;21.00;59.40
4411;DHT22;2218;51.408;7.208;2023-08-06T00:36:13;21.00;59.50
4411;DHT22;2218;51.408;7.208;2023-08-06T00:38:40;21.00;59.50
4411;DHT22;2218;51.408;7.208;2023-08-06T00:41:08;21.00;59.50
4411;DHT22;2218;51.408;7.208;2023-08-06T00:43:37;21.00;59.50
4411;DHT22;2218;51.408;7.208;2023-08-06T00:46:04;21.00;59.50
4411;DHT22;2218;51.408;7.208;2023-08-06T00:48:32;21.00;59.50
4411;DHT22;2218;51.408;7.208;2023-08-06T00:50:59;21.00;59.50
4411;DHT22;2218;51.408;7.208;2023-08-06T00:53:27;21.00;59.50
4411;DHT22;2218;51.408;7.208;2023-08-06T00:55:55;21.00;59.50
4411;DHT22;2218;51.408;7.208;2023-08-06T00:58:22;21.00;59.50
4411;DHT22;2218;51.408;7.208;2023-08-06T01:00:50;21.00;59.50
4411;DHT22;2218;51.408;7.208;2023-08-06T01:03:17;21.00;59.50
4411;DHT22;2218;51.408;7.208;2023-08-06T01:05:44;21.00;59.50
4411;DHT22;2218;51.408;7.208;2023-08-06T01:08:19;21.00;59.50
4411;DHT22;2218;51.408;7.208;2023-08-06T01:11:10;21.00;59.50
4411;DHT22;2218;51.408;7.208;2023-08-06T01:13:46;21.00;59.50
4411;DHT22;2218;51.408;7.208;2023-08-06T01:16:18;21.00;59.50
4411;DHT22;2218;51.408;7.208;2023-08-06T01:18:47;21.00;59.50
4411;DHT22;2218;51.408;7.208;2023-08-06T01:21:17;21.00;59.50
4411;DHT22;2218;51.408;7.208;2023-08-06T01:23:45;21.00;59.50
4411;DHT22;2218;51.408;7.208;2023-08-06T01:26:26;21.00;59.50
4411;DHT22;2218;51.408;7.208;2023-08-06T01:29:05;21.00;59.50
4411;DHT22;2218;51.408;7.208;2023-08-06T01:31:38;21.00;59.60
4411;DHT22;2218;51.408;7.208;2023-08-06T01:34:13;21.00;59.50
4411;DHT22;2218;51.408;7.208;2023-08-06T01:36:46;21.00;59.50
4411;DHT22;2218;51.408;7.208;2023-08-06T01:39:13;21.00;59.50
4411;DHT22;2218;51.408;7.208;2023-08-06T01:41:40;21.00;59.50
4411;DHT22;2218;51.408;7.208;2023-08-06T01:44:07;21.00;59.50
4411;DHT22;2218;51.408;7.208;2023-08-06T01:46:34;21.00;59.50
4411;DHT22;2218;51.408;7.208;2023-08-06T01:49:00;21.00;59.50
4411;DHT22;2218;51.408;7.208;2023-08-06T01:51:27;21.00;59.50
4411;DHT22;2218;51.408;7.208;2023-08-06T01:53:56;21.00;59.50
4411;DHT22;2218;51.408;7.208;2023-08-06T01:56:23;21.00;59.50
4411;DHT22;2218;51.408;7.208;2023-08-06T01:58:49;21.00;59.50
4411;DHT22;2218;51.408;7.208;2023-08-06T02:01:17;20.90;59.40
4411;DHT22;2218;51.408;7.208;2023-08-06T02:03:44;21.00;59.50
4411;DHT22;2218;51.408;7.208;2023-08-06T02:06:11;21.00;59.50
4411;DHT22;2218;51.408;7.208;2023-08-06T02:08:38;21.00;59.60
4411;DHT22;2218;51.408;7.208;2023-08-06T02:11:06;20.90;59.40
4411;DHT22;2218;51.408;7.208;2023-08-06T02:13:34;21.00;59.60
4411;DHT22;2218;51.408;7.208;2023-08-06T02:16:01;20.90;59.50
4411;DHT22;2218;51.408;7.208;2023-08-06T02:18:27;20.90;59.40
4411;DHT22;2218;51.408;7.208;2023-08-06T02:20:55;20.90;59.40
4411;DHT22;2218;51.408;7.208;2023-08-06T02:23:24;20.90;59.50
4411;DHT22;2218;51.408;7.208;2023-08-06T02:25:57;20.90;59.50
4411;DHT22;2218;51.408;7.208;2023-08-06T02:28:26;20.90;59.40
4411;DHT22;2218;51.408;7.208;2023-08-06T02:30:54;20.90;59.40
4411;DHT22;2218;51.408;7.208;2023-08-06T02:33:21;20.90;59.40
4411;DHT22;2218;51.408;7.208;2023-08-06T02:35:48;20.90;59.40
4411;DHT22;2218;51.408;7.208;2023-08-06T02:38:14;20.90;59.50
4411;DHT22;2218;51.408;7.208;2023-08-06T02:40:45;20.90;59.40
4411;DHT22;2218;51.408;7.208;2023-08-06T02:43:12;20.90;59.40
4411;DHT22;2218;51.408;7.208;2023-08-06T02:45:41;20.90;59.40
4411;DHT22;2218;51.408;7.208;2023-08-06T02:48:08;20.90;59.50
4411;DHT22;2218;51.408;7.208;2023-08-06T02:50:39;20.90;59.50
4411;DHT22;2218;51.408;7.208;2023-08-06T02:53:06;20.90;59.40
4411;DHT22;2218;51.408;7.208;2023-08-06T02:55:34;20.90;59.50
4411;DHT22;2218;51.408;7.208;2023-08-06T02:58:06;20.90;59.40
4411;DHT22;2218;51.408;7.208;2023-08-06T03:00:37;20.90;59.40
4411;DHT22;2218;51.408;7.208;2023-08-06T03:03:07;20.90;59.50
4411;DHT22;2218;51.408;7.208;2023-08-06T03:05:51;20.90;59.50
4411;DHT22;2218;51.408;7.208;2023-08-06T03:08:24;20.90;59.50
4411;DHT22;2218;51.408;7.208;2023-08-06T03:10:52;20.90;59.40
4411;DHT22;2218;51.408;7.208;2023-08-06T03:13:19;20.90;59.40
4411;DHT22;2218;51.408;7.208;2023-08-06T03:15:52;20.90;59.50
4411;DHT22;2218;51.408;7.208;2023-08-06T03:18:22;20.90;59.40
4411;DHT22;2218;51.408;7.208;2023-08-06T03:20:50;20.90;59.50
4411;DHT22;2218;51.408;7.208;2023-08-06T03:23:18;20.90;59.50
4411;DHT22;2218;51.408;7.208;2023-08-06T03:25:45;20.90;59.40
4411;DHT22;2218;51.408;7.208;2023-08-06T03:28:13;20.90;59.40
4411;DHT22;2218;51.408;7.208;2023-08-06T03:30:41;20.90;59.40
4411;DHT22;2218;51.408;7.208;2023-08-06T03:33:11;20.90;59.40
4411;DHT22;2218;51.408;7.208;2023-08-06T03:35:39;20.90;59.40
4411;DHT22;2218;51.408;7.208;2023-08-06T03:38:06;20.90;59.40
4411;DHT22;2218;51.408;7.208;2023-08-06T03:40:35;20.90;59.50
4411;DHT22;2218;51.408;7.208;2023-08-06T03:43:02;20.90;59.50
4411;DHT22;2218;51.408;7.208;2023-08-06T03:45:29;20.90;59.40
4411;DHT22;2218;51.408;7.208;2023-08-06T03:47:56;20.90;59.40
4411;DHT22;2218;51.408;7.208;2023-08-06T03:50:23;20.90;59.40
4411;DHT22;2218;51.408;7.208;2023-08-06T03:52:52;20.90;59.40
4411;DHT22;2218;51.408;7.208;2023-08-06T03:55:21;20.90;59.40
4411;DHT22;2218;51.408;7.208;2023-08-06T03:57:48;20.90;59.50
4411;DHT22;2218;51.408;7.208;2023-08-06T04:00:15;20.90;59.50
4411;DHT22;2218;51.408;7.208;2023-08-06T04:02:47;20.90;59.40
4411;DHT22;2218;51.408;7.208;2023-08-06T04:05:14;20.90;59.50
4411;DHT22;2218;51.408;7.208;2023-08-06T04:07:42;20.90;59.40
4411;DHT22;2218;51.408;7.208;2023-08-06T04:10:10;20.90;59.40
4411;DHT22;2218;51.408;7.208;2023-08-06T04:12:38;20.90;59.40
4411;DHT22;2218;51.408;7.208;2023-08-06T04:15:06;20.90;59.40
4411;DHT22;2218;51.408;7.208;2023-08-06T04:17:34;20.90;59.50
4411;DHT22;2218;51.408;7.208;2023-08-06T04:20:01;20.90;59.40
4411;DHT22;2218;51.408;7.208;2023-08-06T04:22:29;20.90;59.40
4411;DHT22;2218;51.408;7.208;2023-08-06T04:24:56;20.90;59.40
4411;DHT22;2218;51.408;7.208;2023-08-06T04:27:25;20.90;59.40
4411;DHT22;2218;51.408;7.208;2023-08-06T04:29:52;20.90;59.40
4411;DHT22;2218;51.408;7.208;2023-08-06T04:32:19;20.90;59.40
4411;DHT22;2218;51.408;7.208;2023-08-06T04:34:50;20.90;59.40
4411;DHT22;2218;51.408;7.208;2023-08-06T04:37:18;20.90;59.40
4411;DHT22;2218;51.408;7.208;2023-08-06T04:39:45;20.90;59.40
4411;DHT22;2218;51.408;7.208;2023-08-06T04:42:11;20.90;59.40
4411;DHT22;2218;51.408;7.208;2023-08-06T04:44:40;20.90;59.40
4411;DHT22;2218;51.408;7.208;2023-08-06T04:47:07;20.90;59.40
4411;DHT22;2218;51.408;7.208;2023-08-06T04:49:34;20.90;59.40
4411;DHT22;2218;51.408;7.208;2023-08-06T04:52:00;20.90;59.40
4411;DHT22;2218;51.408;7.208;2023-08-06T04:54:27;20.90;59.40
4411;DHT22;2218;51.408;7.208;2023-08-06T04:56:54;20.90;59.50
4411;DHT22;2218;51.408;7.208;2023-08-06T04:59:21;20.90;59.40
4411;DHT22;2218;51.408;7.208;2023-08-06T05:01:49;20.90;59.40
4411;DHT22;2218;51.408;7.208;2023-08-06T05:04:16;20.90;59.40
4411;DHT22;2218;51.408;7.208;2023-08-06T05:06:43;20.80;59.30
4411;DHT22;2218;51.408;7.208;2023-08-06T05:09:10;20.90;59.40
4411;DHT22;2218;51.408;7.208;2023-08-06T05:11:38;20.90;59.40
4411;DHT22;2218;51.408;7.208;2023-08-06T05:14:05;20.90;59.40
4411;DHT22;2218;51.408;7.208;2023-08-06T05:16:32;20.90;59.40
4411;DHT22;2218;51.408;7.208;2023-08-06T05:19:00;20.90;59.40
4411;DHT22;2218;51.408;7.208;2023-08-06T05:21:27;20.90;59.40
4411;DHT22;2218;51.408;7.208;2023-08-06T05:23:54;20.90;59.40
4411;DHT22;2218;51.408;7.208;2023-08-06T05:26:21;20.90;59.40
4411;DHT22;2218;51.408;7.208;2023-08-06T05:28:48;20.90;59.40
4411;DHT22;2218;51.408;7.208;2023-08-06T05:31:15;20.90;59.40
4411;DHT22;2218;51.408;7.208;2023-08-06T05:33:41;20.90;59.40
4411;DHT22;2218;51.408;7.208;2023-08-06T05:36:10;20.90;59.40
4411;DHT22;2218;51.408;7.208;2023-08-06T05:38:37;20.90;59.40
4411;DHT22;2218;51.408;7.208;2023-08-06T05:41:04;20.90;59.40
4411;DHT22;2218;51.408;7.208;2023-08-06T05:43:30;20.90;59.40
4411;DHT22;2218;51.408;7.208;2023-08-06T05:45:57;20.90;59.30
4411;DHT22;2218;51.408;7.208;2023-08-06T05:48:24;21.00;59.10
4411;DHT22;2218;51.408;7.208;2023-08-06T05:50:51;21.00;59.10
4411;DHT22;2218;51.408;7.208;2023-08-06T05:53:19;21.00;59.10
4411;DHT22;2218;51.408;7.208;2023-08-06T05:55:46;21.00;59.10
4411;DHT22;2218;51.408;7.208;2023-08-06T05:58:13;21.00;59.10
4411;DHT22;2218;51.408;7.208;2023-08-06T06:00:41;21.00;59.20
4411;DHT22;2218;51.408;7.208;2023-08-06T06:03:07;21.00;59.30
4411;DHT22;2218;51.408;7.208;2023-08-06T06:05:37;21.00;59.40
4411;DHT22;2218;51.408;7.208;2023-08-06T06:08:04;21.00;59.30
4411;DHT22;2218;51.408;7.208;2023-08-06T06:10:32;21.00;59.20
4411;DHT22;2218;51.408;7.208;2023-08-06T06:12:59;21.00;59.20
4411;DHT22;2218;51.408;7.208;2023-08-06T06:15:26;21.00;59.20
4411;DHT22;2218;51.408;7.208;2023-08-06T06:17:53;21.10;59.30
4411;DHT22;2218;51.408;7.208;2023-08-06T06:20:20;21.00;59.20
4411;DHT22;2218;51.408;7.208;2023-08-06T06:22:47;21.00;59.20
4411;DHT22;2218;51.408;7.208;2023-08-06T06:25:14;21.00;59.20
4411;DHT22;2218;51.408;7.208;2023-08-06T06:27:42;21.00;59.20
4411;DHT22;2218;51.408;7.208;2023-08-06T06:30:10;21.00;59.20
4411;DHT22;2218;51.408;7.208;2023-08-06T06:32:38;21.00;59.20
4411;DHT22;2218;51.408;7.208;2023-08-06T06:35:07;21.00;59.20
4411;DHT22;2218;51.408;7.208;2023-08-06T06:37:34;21.10;59.20
4411;DHT22;2218;51.408;7.208;2023-08-06T06:40:01;21.10;59.20
4411;DHT22;2218;51.408;7.208;2023-08-06T06:42:29;21.10;59.20
4411;DHT22;2218;51.408;7.208;2023-08-06T06:45:01;21.10;59.20
4411;DHT22;2218;51.408;7.208;2023-08-06T06:47:28;21.10;59.20
4411;DHT22;2218;51.408;7.208;2023-08-06T06:49:55;21.10;59.20
4411;DHT22;2218;51.408;7.208;2023-08-06T06:52:22;21.10;59.30
4411;DHT22;2218;51.408;7.208;2023-08-06T06:54:48;21.10;59.20
4411;DHT22;2218;51.408;7.208;2023-08-06T06:57:16;21.10;59.20
4411;DHT22;2218;51.408;7.208;2023-08-06T06:59:42;21.10;59.20
4411;DHT22;2218;51.408;7.208;2023-08-06T07:02:11;21.10;59.20
4411;DHT22;2218;51.408;7.208;2023-08-06T07:04:38;21.10;59.20
4411;DHT22;2218;51.408;7.208;2023-08-06T07:07:05;21.10;59.20
4411;DHT22;2218;51.408;7.208;2023-08-06T07:09:32;21.10;59.20
4411;DHT22;2218;51.408;7.208;2023-08-06T07:11:59;21.10;59.20
4411;DHT22;2218;51.408;7.208;2023-08-06T07:14:28;21.10;59.20
4411;DHT22;2218;51.408;7.208;2023-08-06T07:16:55;21.10;59.20
4411;DHT22;2218;51.408;7.208;2023-08-06T07:19:23;21.10;59.20
4411;DHT22;2218;51.408;7.208;2023-08-06T07:21:50;21.10;59.20
4411;DHT22;2218;51.408;7.208;2023-08-06T07:24:17;21.10;59.20
4411;DHT22;2218;51.408;7.208;2023-08-06T07:26:44;21.10;59.20
4411;DHT22;2218;51.408;7.208;2023-08-06T07:29:11;21.10;59.20
4411;DHT22;2218;51.408;7.208;2023-08-06T07:31:38;21.10;59.20
4411;DHT22;2218;51.408;7.208;2023-08-06T07:34:05;21.10;59.20
4411;DHT22;2218;51.408;7.208;2023-08-06T07:36:33;21.10;59.20
4411;DHT22;2218;51.408;7.208;2023-08-06T07:39:00;21.10;59.20
4411;DHT22;2218;51.408;7.208;2023-08-06T07:41:27;21.10;59.20
4411;DHT22;2218;51.408;7.208;2023-08-06T07:43:54;21.10;59.20
4411;DHT22;2218;51.408;7.208;2023-08-06T07:46:21;21.10;59.30
4411;DHT22;2218;51.408;7.208;2023-08-06T07:48:48;21.10;59.30
4411;DHT22;2218;51.408;7.208;2023-08-06T07:51:15;21.10;59.20
4411;DHT22;2218;51.408;7.208;2023-08-06T07:53:43;21.10;59.30
4411;DHT22;2218;51.408;7.208;2023-08-06T07:56:10;21.10;59.30
4411;DHT22;2218;51.408;7.208;2023-08-06T07:58:37;21.10;59.30
4411;DHT22;2218;51.408;7.208;2023-08-06T08:01:06;21.10;59.30
4411;DHT22;2218;51.408;7.208;2023-08-06T08:03:33;21.10;59.30
4411;DHT22;2218;51.408;7.208;2023-08-06T08:06:00;21.10;59.30
4411;DHT22;2218;51.408;7.208;2023-08-06T08:08:27;21.10;59.30
4411;DHT22;2218;51.408;7.208;2023-08-06T08:10:55;21.10;59.30
4411;DHT22;2218;51.408;7.208;2023-08-06T08:13:24;21.10;59.30
4411;DHT22;2218;51.408;7.208;2023-08-06T08:15:57;21.20;59.30
4411;DHT22;2218;51.408;7.208;2023-08-06T08:18:24;21.10;59.20
4411;DHT22;2218;51.408;7.208;2023-08-06T08:20:51;21.10;59.30
4411;DHT22;2218;51.408;7.208;2023-08-06T08:23:19;21.20;59.30
4411;DHT22;2218;51.408;7.208;2023-08-06T08:25:45;21.10;59.20
4411;DHT22;2218;51.408;7.208;2023-08-06T08:28:14;21.10;59.20
4411;DHT22;2218;51.408;7.208;2023-08-06T08:30:41;21.20;59.30
4411;DHT22;2218;51.408;7.208;2023-08-06T08:33:08;21.10;59.20
4411;DHT22;2218;51.408;7.208;2023-08-06T08:35:36;21.10;59.30
4411;DHT22;2218;51.408;7.208;2023-08-06T08:38:03;21.20;59.40
4411;DHT22;2218;51.408;7.208;2023-08-06T08:40:32;21.10;59.30
4411;DHT22;2218;51.408;7.208;2023-08-06T08:43:00;21.20;59.30
4411;DHT22;2218;51.408;7.208;2023-08-06T08:45:30;21.20;59.40
4411;DHT22;2218;51.408;7.208;2023-08-06T08:48:01;21.20;59.40
4411;DHT22;2218;51.408;7.208;2023-08-06T08:50:28;21.20;59.40
4411;DHT22;2218;51.408;7.208;2023-08-06T08:52:56;21.10;59.30
4411;DHT22;2218;51.408;7.208;2023-08-06T08:55:23;21.20;59.30
4411;DHT22;2218;51.408;7.208;2023-08-06T08:57:51;21.10;59.30
4411;DHT22;2218;51.408;7.208;2023-08-06T09:00:18;21.10;59.30
4411;DHT22;2218;51.408;7.208;2023-08-06T09:02:46;21.20;59.40
4411;DHT22;2218;51.408;7.208;2023-08-06T09:05:14;21.20;59.40
4411;DHT22;2218;51.408;7.208;2023-08-06T09:07:42;21.20;59.40
4411;DHT22;2218;51.408;7.208;2023-08-06T09:10:11;21.20;59.40
4411;DHT22;2218;51.408;7.208;2023-08-06T09:12:41;21.20;59.40
4411;DHT22;2218;51.408;7.208;2023-08-06T09:15:10;21.20;59.40
4411;DHT22;2218;51.408;7.208;2023-08-06T09:17:37;21.20;59.40
4411;DHT22;2218;51.408;7.208;2023-08-06T09:20:15;21.20;59.40
4411;DHT22;2218;51.408;7.208;2023-08-06T09:22:42;21.20;59.40
4411;DHT22;2218;51.408;7.208;2023-08-06T09:25:11;21.20;59.40
4411;DHT22;2218;51.408;7.208;2023-08-06T09:27:39;21.20;59.40
4411;DHT22;2218;51.408;7.208;2023-08-06T09:30:07;21.20;59.50
4411;DHT22;2218;51.408;7.208;2023-08-06T09:32:46;21.20;59.40
4411;DHT22;2218;51.408;7.208;2023-08-06T09:35:17;21.20;59.40
4411;DHT22;2218;51.408;7.208;2023-08-06T09:37:45;21.20;59.40
4411;DHT22;2218;51.408;7.208;2023-08-06T09:40:28;21.20;59.40
4411;DHT22;2218;51.408;7.208;2023-08-06T09:42:56;21.20;59.40
4411;DHT22;2218;51.408;7.208;2023-08-06T09:45:30;21.20;59.30
4411;DHT22;2218;51.408;7.208;2023-08-06T09:47:59;21.20;59.30
4411;DHT22;2218;51.408;7.208;2023-08-06T09:50:30;21.20;59.30
4411;DHT22;2218;51.408;7.208;2023-08-06T09:52:59;21.20;59.30
4411;DHT22;2218;51.408;7.208;2023-08-06T09:55:27;21.20;59.30
4411;DHT22;2218;51.408;7.208;2023-08-06T09:57:55;21.20;59.40
4411;DHT22;2218;51.408;7.208;2023-08-06T10:00:22;21.20;59.30
4411;DHT22;2218;51.408;7.208;2023-08-06T10:02:51;21.20;59.30
4411;DHT22;2218;51.408;7.208;2023-08-06T10:05:21;21.20;59.30
4411;DHT22;2218;51.408;7.208;2023-08-06T10:07:53;21.20;59.30
4411;DHT22;2218;51.408;7.208;2023-08-06T10:10:21;21.20;59.30
4411;DHT22;2218;51.408;7.208;2023-08-06T10:12:51;21.20;59.30
4411;DHT22;2218;51.408;7.208;2023-08-06T10:15:24;21.20;59.30
4411;DHT22;2218;51.408;7.208;2023-08-06T10:17:56;21.20;59.20
4411;DHT22;2218;51.408;7.208;2023-08-06T10:20:24;21.20;59.30
4411;DHT22;2218;51.408;7.208;2023-08-06T10:23:03;21.20;59.20
4411;DHT22;2218;51.408;7.208;2023-08-06T10:25:33;21.20;59.20
4411;DHT22;2218;51.408;7.208;2023-08-06T10:28:07;21.20;59.20
4411;DHT22;2218;51.408;7.208;2023-08-06T10:30:41;21.20;59.30
4411;DHT22;2218;51.408;7.208;2023-08-06T10:33:09;21.20;59.30
4411;DHT22;2218;51.408;7.208;2023-08-06T10:35:37;21.20;59.20
4411;DHT22;2218;51.408;7.208;2023-08-06T10:38:12;21.20;59.30
4411;DHT22;2218;51.408;7.208;2023-08-06T10:40:42;21.20;59.20
4411;DHT22;2218;51.408;7.208;2023-08-06T10:43:25;21.20;59.20
4411;DHT22;2218;51.408;7.208;2023-08-06T10:45:53;21.20;59.20
4411;DHT22;2218;51.408;7.208;2023-08-06T10:48:29;21.20;59.30
4411;DHT22;2218;51.408;7.208;2023-08-06T10:51:00;21.20;59.20
4411;DHT22;2218;51.408;7.208;2023-08-06T10:53:29;21.20;59.30
4411;DHT22;2218;51.408;7.208;2023-08-06T10:55:56;21.20;59.30
4411;DHT22;2218;51.408;7.208;2023-08-06T10:58:24;21.20;59.40
4411;DHT22;2218;51.408;7.208;2023-08-06T11:00:51;21.20;59.40
4411;DHT22;2218;51.408;7.208;2023-08-06T11:03:18;21.20;59.40
4411;DHT22;2218;51.408;7.208;2023-08-06T11:05:48;21.20;59.50
4411;DHT22;2218;51.408;7.208;2023-08-06T11:08:25;21.20;59.40
4411;DHT22;2218;51.408;7.208;2023-08-06T11:10:56;21.20;59.50
4411;DHT22;2218;51.408;7.208;2023-08-06T11:13:36;21.20;59.40
4411;DHT22;2218;51.408;7.208;2023-08-06T11:16:04;21.20;59.50
4411;DHT22;2218;51.408;7.208;2023-08-06T11:18:32;21.30;59.50
4411;DHT22;2218;51.408;7.208;2023-08-06T11:20:59;21.20;59.50
4411;DHT22;2218;51.408;7.208;2023-08-06T11:23:27;21.30;59.60
4411;DHT22;2218;51.408;7.208;2023-08-06T11:25:57;21.30;59.60
4411;DHT22;2218;51.408;7.208;2023-08-06T11:28:24;21.30;59.60
4411;DHT22;2218;51.408;7.208;2023-08-06T11:30:54;21.20;59.40
4411;DHT22;2218;51.408;7.208;2023-08-06T11:33:23;21.30;59.60
4411;DHT22;2218;51.408;7.208;2023-08-06T11:35:51;21.30;59.60
4411;DHT22;2218;51.408;7.208;2023-08-06T11:38:20;21.20;59.50
4411;DHT22;2218;51.408;7.208;2023-08-06T11:40:47;21.30;59.50
4411;DHT22;2218;51.408;7.208;2023-08-06T11:43:17;21.30;59.50
4411;DHT22;2218;51.408;7.208;2023-08-06T11:45:46;21.30;59.50
4411;DHT22;2218;51.408;7.208;2023-08-06T11:48:13;21.30;59.60
4411;DHT22;2218;51.408;7.208;2023-08-06T11:50:40;21.30;59.60
4411;DHT22;2218;51.408;7.208;2023-08-06T11:53:07;21.20;59.50
4411;DHT22;2218;51.408;7.208;2023-08-06T11:55:38;21.30;59.60
4411;DHT22;2218;51.408;7.208;2023-08-06T11:58:05;21.30;59.60
4411;DHT22;2218;51.408;7.208;2023-08-06T12:00:34;21.20;59.50
4411;DHT22;2218;51.408;7.208;2023-08-06T12:03:00;21.30;59.60
4411;DHT22;2218;51.408;7.208;2023-08-06T12:05:31;21.30;59.60
4411;DHT22;2218;51.408;7.208;2023-08-06T12:08:00;21.30;59.60
4411;DHT22;2218;51.408;7.208;2023-08-06T12:10:29;21.30;59.60
4411;DHT22;2218;51.408;7.208;2023-08-06T12:12:57;21.30;59.50
4411;DHT22;2218;51.408;7.208;2023-08-06T12:15:24;21.30;59.50
4411;DHT22;2218;51.408;7.208;2023-08-06T12:17:52;21.30;59.60
4411;DHT22;2218;51.408;7.208;2023-08-06T12:20:19;21.30;59.60
4411;DHT22;2218;51.408;7.208;2023-08-06T12:22:46;21.30;59.60
4411;DHT22;2218;51.408;7.208;2023-08-06T12:25:13;21.30;59.50
4411;DHT22;2218;51.408;7.208;2023-08-06T12:27:42;21.30;59.50
4411;DHT22;2218;51.408;7.208;2023-08-06T12:30:11;21.30;59.50
4411;DHT22;2218;51.408;7.208;2023-08-06T12:32:39;21.30;59.40
4411;DHT22;2218;51.408;7.208;2023-08-06T12:35:08;21.30;59.40
4411;DHT22;2218;51.408;7.208;2023-08-06T12:37:35;21.30;59.30
4411;DHT22;2218;51.408;7.208;2023-08-06T12:40:05;21.30;59.40
4411;DHT22;2218;51.408;7.208;2023-08-06T12:42:32;21.30;59.40
4411;DHT22;2218;51.408;7.208;2023-08-06T12:44:59;21.30;59.40
4411;DHT22;2218;51.408;7.208;2023-08-06T12:47:26;21.30;59.40
4411;DHT22;2218;51.408;7.208;2023-08-06T12:49:53;21.30;59.40
4411;DHT22;2218;51.408;7.208;2023-08-06T12:52:21;21.30;59.40
4411;DHT22;2218;51.408;7.208;2023-08-06T12:54:48;21.20;59.30
4411;DHT22;2218;51.408;7.208;2023-08-06T12:57:15;21.20;59.30
4411;DHT22;2218;51.408;7.208;2023-08-06T12:59:43;21.30;59.40
4411;DHT22;2218;51.408;7.208;2023-08-06T13:02:09;21.20;59.30
4411;DHT22;2218;51.408;7.208;2023-08-06T13:04:36;21.20;59.80
4411;DHT22;2218;51.408;7.208;2023-08-06T13:07:03;21.30;59.40
4411;DHT22;2218;51.408;7.208;2023-08-06T13:09:33;21.30;59.50
4411;DHT22;2218;51.408;7.208;2023-08-06T13:12:00;21.30;59.50
4411;DHT22;2218;51.408;7.208;2023-08-06T13:14:31;21.20;59.40
4411;DHT22;2218;51.408;7.208;2023-08-06T13:16:58;21.20;59.50
4411;DHT22;2218;51.408;7.208;2023-08-06T13:19:25;21.20;59.50
4411;DHT22;2218;51.408;7.208;2023-08-06T13:22:00;21.20;59.50
4411;DHT22;2218;51.408;7.208;2023-08-06T13:24:35;21.20;59.50
4411;DHT22;2218;51.408;7.208;2023-08-06T13:27:02;21.20;59.50
4411;DHT22;2218;51.408;7.208;2023-08-06T13:29:29;21.20;59.50
4411;DHT22;2218;51.408;7.208;2023-08-06T13:31:56;21.20;59.50
4411;DHT22;2218;51.408;7.208;2023-08-06T13:34:23;21.20;59.50
4411;DHT22;2218;51.408;7.208;2023-08-06T13:36:50;21.20;59.50
4411;DHT22;2218;51.408;7.208;2023-08-06T13:39:17;21.20;59.50
4411;DHT22;2218;51.408;7.208;2023-08-06T13:41:46;21.20;59.50
4411;DHT22;2218;51.408;7.208;2023-08-06T13:44:13;21.20;59.60
4411;DHT22;2218;51.408;7.208;2023-08-06T13:46:41;21.20;59.50
4411;DHT22;2218;51.408;7.208;2023-08-06T13:49:09;21.20;59.50
4411;DHT22;2218;51.408;7.208;2023-08-06T13:51:36;21.20;59.50
4411;DHT22;2218;51.408;7.208;2023-08-06T13:54:03;21.20;59.60
4411;DHT22;2218;51.408;7.208;2023-08-06T13:56:32;21.20;59.60
4411;DHT22;2218;51.408;7.208;2023-08-06T13:59:01;21.20;59.60
4411;DHT22;2218;51.408;7.208;2023-08-06T14:01:28;21.20;59.60
4411;DHT22;2218;51.408;7.208;2023-08-06T14:03:55;21.20;59.60
4411;DHT22;2218;51.408;7.208;2023-08-06T14:06:21;21.20;59.60
4411;DHT22;2218;51.408;7.208;2023-08-06T14:08:48;21.20;59.60
4411;DHT22;2218;51.408;7.208;2023-08-06T14:11:15;21.20;59.60
4411;DHT22;2218;51.408;7.208;2023-08-06T14:13:42;21.20;59.60
4411;DHT22;2218;51.408;7.208;2023-08-06T14:16:10;21.20;59.60
4411;DHT22;2218;51.408;7.208;2023-08-06T14:18:37;21.20;59.60
4411;DHT22;2218;51.408;7.208;2023-08-06T14:21:06;21.20;59.60
4411;DHT22;2218;51.408;7.208;2023-08-06T14:23:33;21.10;59.60
4411;DHT22;2218;51.408;7.208;2023-08-06T14:26:00;21.10;59.60
4411;DHT22;2218;51.408;7.208;2023-08-06T14:28:27;21.20;59.60
4411;DHT22;2218;51.408;7.208;2023-08-06T14:30:54;21.20;59.60
4411;DHT22;2218;51.408;7.208;2023-08-06T14:33:23;21.10;59.60
4411;DHT22;2218;51.408;7.208;2023-08-06T14:35:50;21.10;59.60
4411;DHT22;2218;51.408;7.208;2023-08-06T14:38:17;21.10;59.60
4411;DHT22;2218;51.408;7.208;2023-08-06T14:40:44;21.10;59.60
4411;DHT22;2218;51.408;7.208;2023-08-06T14:43:11;21.10;59.60
4411;DHT22;2218;51.408;7.208;2023-08-06T14:45:38;21.10;59.60
4411;DHT22;2218;51.408;7.208;2023-08-06T14:48:05;21.10;59.60
4411;DHT22;2218;51.408;7.208;2023-08-06T14:50:33;21.10;59.60
4411;DHT22;2218;51.408;7.208;2023-08-06T14:53:01;21.10;59.60
4411;DHT22;2218;51.408;7.208;2023-08-06T14:55:30;21.10;59.60
4411;DHT22;2218;51.408;7.208;2023-08-06T14:57:56;21.10;59.60
4411;DHT22;2218;51.408;7.208;2023-08-06T15:00:23;21.10;59.60
4411;DHT22;2218;51.408;7.208;2023-08-06T15:02:50;21.10;59.60
4411;DHT22;2218;51.408;7.208;2023-08-06T15:05:17;21.10;59.60
4411;DHT22;2218;51.408;7.208;2023-08-06T15:07:45;21.10;59.60
4411;DHT22;2218;51.408;7.208;2023-08-06T15:10:14;21.10;59.60
4411;DHT22;2218;51.408;7.208;2023-08-06T15:12:41;21.10;59.60
4411;DHT22;2218;51.408;7.208;2023-08-06T15:15:09;21.10;59.70
4411;DHT22;2218;51.408;7.208;2023-08-06T15:17:36;21.10;59.60
4411;DHT22;2218;51.408;7.208;2023-08-06T15:20:03;21.10;59.70
4411;DHT22;2218;51.408;7.208;2023-08-06T15:22:31;21.10;59.70
4411;DHT22;2218;51.408;7.208;2023-08-06T15:25:00;21.00;59.60
4411;DHT22;2218;51.408;7.208;2023-08-06T15:27:27;21.10;59.70
4411;DHT22;2218;51.408;7.208;2023-08-06T15:29:55;21.10;59.70
4411;DHT22;2218;51.408;7.208;2023-08-06T15:32:22;21.10;59.70
4411;DHT22;2218;51.408;7.208;2023-08-06T15:34:49;21.10;59.70
4411;DHT22;2218;51.408;7.208;2023-08-06T15:37:16;21.10;59.70
4411;DHT22;2218;51.408;7.208;2023-08-06T15:39:44;21.10;59.70
4411;DHT22;2218;51.408;7.208;2023-08-06T15:42:13;21.00;59.60
4411;DHT22;2218;51.408;7.208;2023-08-06T15:44:41;21.10;59.70
4411;DHT22;2218;51.408;7.208;2023-08-06T15:47:08;21.10;59.70
4411;DHT22;2218;51.408;7.208;2023-08-06T15:49:35;21.10;59.70
4411;DHT22;2218;51.408;7.208;2023-08-06T15:52:02;21.10;59.70
4411;DHT22;2218;51.408;7.208;2023-08-06T15:54:30;21.10;59.70
4411;DHT22;2218;51.408;7.208;2023-08-06T15:56:57;21.00;59.60
4411;DHT22;2218;51.408;7.208;2023-08-06T15:59:26;21.00;59.60
4411;DHT22;2218;51.408;7.208;2023-08-06T16:01:54;21.00;59.60
4411;DHT22;2218;51.408;7.208;2023-08-06T16:04:23;21.00;59.60
4411;DHT22;2218;51.408;7.208;2023-08-06T16:06:50;21.00;59.50
4411;DHT22;2218;51.408;7.208;2023-08-06T16:09:17;21.00;59.50